Time;durP1;ratioP1;P1;durP2;ratioP2;P2;SDS_P1;SDS_P2;PMS_P1;PMS_P2;Temp;Humidity;BMP_temperature;BMP_pressure;BME280_temperature;BME280_humidity;BME280_pressure;Samples;Min_cycle;Max_cycle;Signal;HPM_P1;HPM_P2
2023/08/02 00:01:20;;;;;;;4.53;2.03;;;15.30;99.90;;;;;;5006206;28;20026;-63
2023/08/02 00:03:46;;;;;;;9.75;1.65;;;15.30;99.90;;;;;;5008123;28;20027;-65
2023/08/02 00:06:11;;;;;;;3.85;1.60;;;15.30;99.90;;;;;;5005727;28;20038;-63
2023/08/02 00:08:37;;;;;;;7.15;2.65;;;15.30;99.90;;;;;;5004270;28;20089;-64
2023/08/02 00:11:03;;;;;;;8.00;1.80;;;15.30;99.90;;;;;;5008083;28;20034;-63
2023/08/02 00:13:29;;;;;;;6.78;1.70;;;15.30;99.90;;;;;;5009999;28;20121;-64
2023/08/02 00:15:55;;;;;;;4.90;1.95;;;15.30;99.90;;;;;;5003514;28;20101;-58
2023/08/02 00:18:20;;;;;;;6.22;1.70;;;15.30;99.90;;;;;;5009591;28;20038;-63
2023/08/02 00:20:47;;;;;;;3.95;1.55;;;15.30;99.90;;;;;;5000390;28;20602;-63
2023/08/02 00:23:12;;;;;;;3.30;1.40;;;15.30;99.90;;;;;;5008384;28;20030;-64
2023/08/02 00:25:39;;;;;;;9.98;2.22;;;15.20;99.90;;;;;;5006808;28;20100;-63
2023/08/02 00:28:04;;;;;;;7.75;1.38;;;15.20;99.90;;;;;;5008610;28;20068;-65
2023/08/02 00:30:30;;;;;;;5.22;1.70;;;15.20;99.90;;;;;;5007637;28;20061;-64
2023/08/02 00:32:56;;;;;;;4.78;1.50;;;15.20;99.90;;;;;;5008237;28;20026;-64
2023/08/02 00:35:21;;;;;;;6.85;1.67;;;15.20;99.90;;;;;;5006456;28;20034;-64
2023/08/02 00:37:47;;;;;;;3.58;1.35;;;15.20;99.90;;;;;;5002188;28;20025;-63
2023/08/02 00:40:13;;;;;;;3.78;1.42;;;15.20;99.90;;;;;;5004225;28;20067;-64
2023/08/02 00:42:39;;;;;;;4.05;1.30;;;15.20;99.90;;;;;;4993111;28;20554;-64
2023/08/02 00:45:05;;;;;;;9.20;1.40;;;15.20;99.90;;;;;;5002688;28;20080;-66
2023/08/02 00:47:32;;;;;;;5.55;1.88;;;15.20;99.90;;;;;;5002399;28;20037;-66
2023/08/02 00:49:58;;;;;;;3.92;1.70;;;15.20;99.90;;;;;;5003306;28;20030;-64
2023/08/02 00:52:24;;;;;;;4.03;1.27;;;15.20;99.90;;;;;;5004363;28;20475;-64
2023/08/02 00:54:50;;;;;;;4.53;1.83;;;15.20;99.90;;;;;;5002404;28;20030;-64
2023/08/02 00:57:16;;;;;;;4.85;1.60;;;15.30;99.90;;;;;;4998788;28;20065;-64
2023/08/02 00:59:42;;;;;;;4.97;1.83;;;15.30;99.90;;;;;;5008072;28;20069;-65
2023/08/02 01:02:08;;;;;;;5.55;1.60;;;15.30;99.90;;;;;;5006870;28;20109;-64
2023/08/02 01:04:35;;;;;;;2.00;1.48;;;15.30;99.90;;;;;;5002557;28;20022;-65
2023/08/02 01:07:13;;;;;;;2.90;1.35;;;15.20;99.90;;;;;;5003234;28;20048;-64
2023/08/02 01:09:46;;;;;;;5.93;1.80;;;15.20;99.90;;;;;;5006657;28;20034;-65
2023/08/02 01:12:13;;;;;;;5.18;1.70;;;15.20;99.90;;;;;;5006566;28;20455;-66
2023/08/02 01:14:46;;;;;;;3.20;1.38;;;15.20;99.90;;;;;;5005395;28;20494;-65
2023/08/02 01:17:13;;;;;;;5.72;2.03;;;15.20;99.90;;;;;;5000360;28;20041;-64
2023/08/02 01:19:39;;;;;;;6.32;1.92;;;15.20;99.90;;;;;;4991561;28;20037;-64
2023/08/02 01:22:05;;;;;;;6.28;2.78;;;15.20;99.90;;;;;;4972196;28;20032;-63
2023/08/02 01:24:33;;;;;;;4.53;2.33;;;15.10;99.90;;;;;;4989445;28;20034;-64
2023/08/02 01:27:09;;;;;;;12.57;2.00;;;15.10;99.90;;;;;;4993814;28;20073;-62
2023/08/02 01:29:41;;;;;;;3.08;1.40;;;15.20;99.90;;;;;;5000158;28;20066;-65
2023/08/02 01:32:09;;;;;;;4.03;1.40;;;15.10;99.90;;;;;;4998343;28;20495;-64
2023/08/02 01:34:34;;;;;;;9.13;2.03;;;15.20;99.90;;;;;;5005308;28;20034;-66
2023/08/02 01:37:00;;;;;;;2.45;1.92;;;15.10;99.90;;;;;;5003389;28;20072;-63
2023/08/02 01:39:26;;;;;;;3.17;1.70;;;15.10;99.90;;;;;;5002274;28;20077;-62
2023/08/02 01:41:51;;;;;;;5.15;1.67;;;15.10;99.90;;;;;;4999696;28;20058;-64
2023/08/02 01:44:17;;;;;;;9.88;2.22;;;15.10;99.90;;;;;;5000542;28;20087;-63
2023/08/02 01:46:42;;;;;;;10.98;1.85;;;15.10;99.90;;;;;;5002779;28;20021;-63
2023/08/02 01:49:08;;;;;;;9.98;2.65;;;15.10;99.90;;;;;;5002801;28;20022;-63
2023/08/02 01:51:34;;;;;;;4.20;1.83;;;15.10;99.90;;;;;;4999297;28;20117;-65
2023/08/02 01:53:59;;;;;;;5.15;1.52;;;15.20;99.90;;;;;;5001807;28;20028;-63
2023/08/02 01:56:25;;;;;;;8.15;1.50;;;15.20;99.90;;;;;;5001776;28;20033;-65
2023/08/02 01:58:50;;;;;;;4.03;1.65;;;15.20;99.90;;;;;;5002658;28;20029;-66
2023/08/02 02:01:16;;;;;;;8.88;2.08;;;15.20;99.90;;;;;;5002412;28;20022;-64
2023/08/02 02:03:41;;;;;;;3.88;2.30;;;15.20;99.90;;;;;;5002415;28;20029;-63
2023/08/02 02:06:07;;;;;;;10.13;1.85;;;15.20;99.90;;;;;;5002786;28;20044;-63
2023/08/02 02:08:32;;;;;;;6.00;1.70;;;15.20;99.90;;;;;;5003441;28;20042;-63
2023/08/02 02:10:58;;;;;;;8.48;2.22;;;15.20;99.90;;;;;;5004788;28;20108;-63
2023/08/02 02:13:24;;;;;;;3.05;1.67;;;15.30;99.90;;;;;;5000891;28;20045;-64
2023/08/02 02:15:50;;;;;;;4.68;1.58;;;15.20;99.90;;;;;;5008357;28;20038;-64
2023/08/02 02:18:16;;;;;;;4.95;1.73;;;15.20;99.90;;;;;;5007535;28;20034;-64
2023/08/02 02:20:42;;;;;;;5.10;2.70;;;15.20;99.90;;;;;;5009237;28;20030;-64
2023/08/02 02:23:08;;;;;;;6.00;1.63;;;15.20;99.90;;;;;;5006386;28;20029;-64
2023/08/02 02:25:34;;;;;;;5.55;2.13;;;15.20;99.90;;;;;;5005688;28;20064;-63
2023/08/02 02:27:59;;;;;;;6.60;1.65;;;15.20;99.90;;;;;;5007678;28;20065;-65
2023/08/02 02:30:25;;;;;;;6.78;1.85;;;15.20;99.90;;;;;;5007894;28;20573;-65
2023/08/02 02:32:50;;;;;;;7.15;2.15;;;15.20;99.90;;;;;;5008271;28;20026;-64
2023/08/02 02:35:16;;;;;;;5.25;2.45;;;15.20;99.90;;;;;;5008039;28;20484;-64
2023/08/02 02:37:42;;;;;;;5.10;1.73;;;15.20;99.90;;;;;;5007803;28;20026;-64
2023/08/02 02:40:09;;;;;;;5.50;2.63;;;15.20;99.90;;;;;;5006369;28;20065;-65
2023/08/02 02:42:35;;;;;;;4.47;1.80;;;15.20;99.90;;;;;;4990105;28;20038;-65
2023/08/02 02:45:01;;;;;;;6.75;2.70;;;15.20;99.90;;;;;;5007914;28;20101;-63
2023/08/02 02:47:26;;;;;;;6.68;2.28;;;15.10;99.90;;;;;;5005658;28;20117;-64
2023/08/02 02:49:52;;;;;;;3.83;2.17;;;15.10;99.90;;;;;;4989761;28;20125;-64
2023/08/02 02:52:17;;;;;;;5.75;2.83;;;15.10;99.90;;;;;;5007277;28;20034;-64
2023/08/02 02:54:43;;;;;;;5.57;1.88;;;15.10;99.90;;;;;;5004991;28;20033;-65
2023/08/02 02:57:09;;;;;;;6.65;2.78;;;15.10;99.90;;;;;;5006978;28;20045;-64
2023/08/02 02:59:35;;;;;;;5.43;1.98;;;15.10;99.90;;;;;;5008638;28;20026;-64
2023/08/02 03:02:01;;;;;;;4.53;1.80;;;15.10;99.90;;;;;;5005984;28;20033;-63
2023/08/02 03:04:27;;;;;;;8.52;2.55;;;15.10;99.90;;;;;;5008743;28;20233;-65
2023/08/02 03:06:53;;;;;;;6.47;2.13;;;15.00;99.90;;;;;;5008921;28;20022;-64
2023/08/02 03:09:19;;;;;;;7.18;2.10;;;15.00;99.90;;;;;;5011366;28;20411;-66
2023/08/02 03:11:45;;;;;;;7.00;2.63;;;15.00;99.90;;;;;;5011817;28;20058;-65
2023/08/02 03:14:10;;;;;;;9.02;2.10;;;15.00;99.90;;;;;;5011194;28;20049;-65
2023/08/02 03:16:36;;;;;;;6.03;3.22;;;14.90;99.90;;;;;;5008835;28;20030;-63
2023/08/02 03:19:02;;;;;;;4.75;2.20;;;14.90;99.90;;;;;;5005582;28;20108;-64
2023/08/02 03:21:28;;;;;;;4.65;2.08;;;14.90;99.90;;;;;;5009033;28;20036;-58
2023/08/02 03:23:54;;;;;;;4.00;2.10;;;14.90;99.90;;;;;;5003479;28;20026;-65
2023/08/02 03:26:19;;;;;;;6.60;2.42;;;14.90;99.90;;;;;;5004878;28;20022;-65
2023/08/02 03:28:45;;;;;;;6.78;2.40;;;14.80;99.90;;;;;;5007122;28;20037;-66
2023/08/02 03:31:10;;;;;;;4.53;2.15;;;14.80;99.90;;;;;;5005651;28;20065;-65
2023/08/02 03:33:36;;;;;;;3.72;2.03;;;14.70;99.90;;;;;;5003143;28;20026;-61
2023/08/02 03:36:01;;;;;;;2.92;2.25;;;14.70;99.90;;;;;;5007271;28;20056;-64
2023/08/02 03:38:27;;;;;;;7.63;2.25;;;14.70;99.90;;;;;;5010378;28;20034;-64
2023/08/02 03:40:53;;;;;;;11.38;2.75;;;14.60;99.90;;;;;;5009907;28;20475;-64
2023/08/02 03:43:18;;;;;;;3.30;1.83;;;14.60;99.90;;;;;;5010506;28;20396;-64
2023/08/02 03:45:44;;;;;;;5.68;2.08;;;14.60;99.90;;;;;;5006242;28;20037;-63
2023/08/02 03:48:09;;;;;;;6.15;2.10;;;14.60;99.90;;;;;;5009124;28;20043;-65
2023/08/02 03:50:35;;;;;;;7.55;2.28;;;14.50;99.90;;;;;;5004110;28;20531;-64
2023/08/02 03:53:01;;;;;;;7.05;2.10;;;14.50;99.90;;;;;;5008499;28;20109;-64
2023/08/02 03:55:26;;;;;;;4.10;1.73;;;14.50;99.90;;;;;;5010566;28;20033;-64
2023/08/02 03:57:52;;;;;;;6.57;2.33;;;14.60;99.90;;;;;;5004425;28;20023;-64
2023/08/02 04:00:17;;;;;;;5.15;1.83;;;14.50;99.90;;;;;;5009966;28;20044;-64
2023/08/02 04:02:43;;;;;;;5.88;2.53;;;14.60;99.90;;;;;;5008575;28;20079;-64
2023/08/02 04:05:10;;;;;;;2.20;1.60;;;14.60;99.90;;;;;;5011725;28;20108;-65
2023/08/02 04:07:35;;;;;;;8.00;2.03;;;14.60;99.90;;;;;;5002787;28;20046;-65
2023/08/02 04:10:01;;;;;;;3.22;1.92;;;14.60;99.90;;;;;;5002739;28;20030;-64
2023/08/02 04:12:27;;;;;;;8.10;2.88;;;14.60;99.90;;;;;;4982449;23;20051;-65
2023/08/02 04:14:54;;;;;;;4.97;2.05;;;14.60;99.90;;;;;;4951690;28;20466;-65
2023/08/02 04:17:20;;;;;;;9.27;2.67;;;14.60;99.90;;;;;;4951182;28;20070;-65
2023/08/02 04:19:46;;;;;;;3.55;2.17;;;14.60;99.90;;;;;;4954525;28;20101;-65
2023/08/02 04:22:11;;;;;;;5.32;2.28;;;14.70;99.90;;;;;;4932889;29;20024;-65
2023/08/02 04:24:37;;;;;;;3.05;2.38;;;14.70;99.90;;;;;;4947440;29;20031;-66
2023/08/02 04:27:03;;;;;;;5.82;1.77;;;14.70;99.90;;;;;;4948745;29;20028;-65
2023/08/02 04:29:29;;;;;;;4.53;2.17;;;14.70;99.90;;;;;;4948163;29;20026;-65
2023/08/02 04:31:54;;;;;;;6.75;2.35;;;14.80;99.90;;;;;;4943448;29;20032;-66
2023/08/02 04:34:20;;;;;;;3.80;2.08;;;14.80;99.90;;;;;;4946073;29;20070;-65
2023/08/02 04:36:45;;;;;;;6.00;2.60;;;14.80;99.90;;;;;;4945318;29;20023;-66
2023/08/02 04:39:11;;;;;;;5.40;2.58;;;14.80;99.90;;;;;;4945612;29;20401;-65
2023/08/02 04:41:37;;;;;;;4.55;2.65;;;14.80;99.90;;;;;;4950699;29;20031;-65
2023/08/02 04:44:02;;;;;;;4.82;2.05;;;14.90;99.90;;;;;;4951716;29;20145;-65
2023/08/02 04:46:28;;;;;;;5.80;2.65;;;14.90;99.90;;;;;;4952029;29;20031;-66
2023/08/02 04:48:53;;;;;;;5.90;2.67;;;14.90;99.90;;;;;;4932451;29;20042;-65
2023/08/02 04:51:19;;;;;;;5.25;2.42;;;14.90;99.90;;;;;;4943374;29;20110;-65
2023/08/02 04:53:47;;;;;;;7.53;3.08;;;14.90;99.90;;;;;;4948398;29;20039;-65
2023/08/02 04:56:13;;;;;;;5.60;2.67;;;14.90;99.90;;;;;;4931984;29;20042;-65
2023/08/02 04:58:40;;;;;;;5.55;2.38;;;15.00;99.90;;;;;;4947658;29;20031;-65
2023/08/02 05:01:06;;;;;;;7.32;2.97;;;15.00;99.90;;;;;;4944909;29;20023;-65
2023/08/02 05:03:32;;;;;;;7.45;2.90;;;15.00;99.90;;;;;;4949874;29;20655;-64
2023/08/02 05:05:59;;;;;;;7.15;2.70;;;15.10;99.90;;;;;;4948027;29;20027;-65
2023/08/02 05:08:25;;;;;;;7.45;2.63;;;15.20;99.90;;;;;;4942611;29;20035;-65
2023/08/02 05:10:50;;;;;;;7.20;2.53;;;15.20;99.90;;;;;;4941461;29;20038;-65
2023/08/02 05:13:16;;;;;;;6.45;2.80;;;15.30;99.90;;;;;;4947393;29;20043;-66
2023/08/02 05:15:41;;;;;;;8.15;3.08;;;15.40;99.90;;;;;;4946118;29;20036;-65
2023/08/02 05:18:07;;;;;;;4.13;2.40;;;15.40;99.90;;;;;;4940139;28;20038;-65
2023/08/02 05:20:33;;;;;;;4.90;3.35;;;15.40;99.90;;;;;;4947913;29;20062;-65
2023/08/02 05:22:59;;;;;;;10.57;2.83;;;15.40;99.90;;;;;;4941445;29;20020;-66
2023/08/02 05:25:32;;;;;;;8.30;2.80;;;15.40;99.90;;;;;;4947558;29;20063;-65
2023/08/02 05:27:58;;;;;;;7.82;3.10;;;15.50;99.90;;;;;;4944997;29;20054;-65
2023/08/02 05:30:24;;;;;;;5.63;3.08;;;15.50;99.90;;;;;;4940700;28;20083;-65
2023/08/02 05:32:49;;;;;;;7.25;3.97;;;15.60;99.90;;;;;;4948067;29;20035;-65
2023/08/02 05:35:15;;;;;;;5.85;3.00;;;15.60;99.90;;;;;;4941684;29;20047;-65
2023/08/02 05:37:41;;;;;;;6.13;2.78;;;15.70;99.90;;;;;;4947588;29;20032;-65
2023/08/02 05:40:07;;;;;;;6.15;2.92;;;15.70;99.90;;;;;;4948938;29;20027;-65
2023/08/02 05:42:32;;;;;;;4.72;2.90;;;15.70;99.90;;;;;;4950292;29;20421;-65
2023/08/02 05:44:58;;;;;;;6.40;3.35;;;15.70;99.90;;;;;;4950894;29;20023;-65
2023/08/02 05:47:23;;;;;;;6.38;3.28;;;15.80;99.90;;;;;;4950037;29;20035;-65
2023/08/02 05:49:49;;;;;;;5.90;2.75;;;15.80;99.90;;;;;;4948589;29;20043;-66
2023/08/02 05:52:15;;;;;;;8.55;2.80;;;15.90;99.90;;;;;;4941795;29;20110;-65
2023/08/02 05:54:40;;;;;;;5.65;2.80;;;15.90;99.90;;;;;;4941221;29;20034;-65
2023/08/02 05:57:07;;;;;;;4.25;2.90;;;16.00;99.90;;;;;;4943278;29;20079;-66
2023/08/02 05:59:33;;;;;;;4.72;2.72;;;16.10;99.90;;;;;;4945674;29;20035;-64
2023/08/02 06:01:59;;;;;;;8.00;2.55;;;16.10;99.90;;;;;;4945135;29;20026;-65
2023/08/02 06:04:25;;;;;;;5.18;2.67;;;16.20;99.90;;;;;;4945698;29;20441;-65
2023/08/02 06:06:51;;;;;;;4.03;2.97;;;16.20;99.90;;;;;;4944883;29;20074;-65
2023/08/02 06:09:16;;;;;;;6.75;3.00;;;16.20;99.90;;;;;;4948365;29;20034;-65
2023/08/02 06:11:42;;;;;;;5.63;3.00;;;16.10;99.90;;;;;;4948773;29;20035;-65
2023/08/02 06:14:07;;;;;;;5.75;3.25;;;16.20;99.90;;;;;;4949127;29;20031;-65
2023/08/02 06:16:33;;;;;;;6.65;2.67;;;16.20;99.90;;;;;;4949450;29;20031;-65
2023/08/02 06:18:58;;;;;;;4.22;3.33;;;16.20;99.90;;;;;;4949101;29;20031;-65
2023/08/02 06:21:24;;;;;;;5.80;3.03;;;16.20;99.90;;;;;;4944277;29;20035;-65
2023/08/02 06:23:50;;;;;;;4.68;2.80;;;16.20;99.90;;;;;;4942725;29;20058;-65
2023/08/02 06:26:16;;;;;;;6.00;2.47;;;16.30;99.90;;;;;;4946582;29;20034;-65
2023/08/02 06:28:41;;;;;;;4.55;2.65;;;16.40;99.90;;;;;;4948731;29;20509;-65
2023/08/02 06:31:07;;;;;;;5.05;2.65;;;16.40;99.90;;;;;;4948455;29;20031;-65
2023/08/02 06:33:32;;;;;;;8.52;3.47;;;16.50;99.90;;;;;;4950580;29;20028;-62
2023/08/02 06:35:58;;;;;;;4.93;2.50;;;16.60;99.90;;;;;;4948674;29;20563;-65
2023/08/02 06:38:23;;;;;;;8.50;2.55;;;16.60;99.90;;;;;;4943134;29;20031;-65
2023/08/02 06:40:49;;;;;;;8.68;2.67;;;16.70;99.90;;;;;;4946412;28;20524;-65
2023/08/02 06:43:14;;;;;;;3.92;2.45;;;16.60;99.90;;;;;;4951948;29;20027;-65
2023/08/02 06:45:47;;;;;;;4.88;2.72;;;16.60;99.90;;;;;;4951732;29;20031;-65
2023/08/02 06:48:13;;;;;;;5.60;2.65;;;16.70;99.90;;;;;;4953902;29;20050;-65
2023/08/02 06:50:39;;;;;;;5.68;2.53;;;16.70;99.90;;;;;;4953617;29;20042;-65
2023/08/02 06:53:05;;;;;;;6.13;2.72;;;16.60;99.90;;;;;;4948397;29;20404;-65
2023/08/02 06:55:31;;;;;;;4.00;2.65;;;16.60;99.90;;;;;;4945739;29;20137;-65
2023/08/02 06:57:56;;;;;;;5.97;2.80;;;16.60;99.90;;;;;;4931251;29;20159;-65
2023/08/02 07:00:22;;;;;;;3.58;2.50;;;16.60;99.90;;;;;;4948560;29;20073;-65
2023/08/02 07:02:48;;;;;;;3.60;2.53;;;16.50;99.90;;;;;;4948016;29;20031;-65
2023/08/02 07:05:13;;;;;;;6.18;2.40;;;16.40;99.90;;;;;;4946889;29;20031;-65
2023/08/02 07:07:39;;;;;;;4.82;3.35;;;16.40;99.90;;;;;;4953991;28;20090;-65
2023/08/02 07:10:04;;;;;;;6.80;3.10;;;16.30;99.90;;;;;;4953275;29;20066;-65
2023/08/02 07:12:30;;;;;;;6.78;3.20;;;16.20;99.90;;;;;;4953455;29;20039;-65
2023/08/02 07:14:56;;;;;;;5.70;3.15;;;16.20;99.90;;;;;;4949870;29;20031;-65
2023/08/02 07:17:21;;;;;;;5.43;3.58;;;16.30;99.90;;;;;;4954476;29;20023;-66
2023/08/02 07:19:48;;;;;;;7.40;3.42;;;16.40;99.90;;;;;;4954442;29;20106;-65
2023/08/02 07:22:17;;;;;;;8.27;3.65;;;16.40;99.90;;;;;;4945170;29;20023;-65
2023/08/02 07:24:46;;;;;;;5.95;3.35;;;16.50;99.90;;;;;;4948417;29;20019;-66
2023/08/02 07:27:11;;;;;;;6.57;3.58;;;16.70;99.90;;;;;;4948053;29;20465;-65
2023/08/02 07:29:37;;;;;;;4.50;3.45;;;16.80;99.90;;;;;;4956494;28;20094;-65
2023/08/02 07:32:03;;;;;;;5.45;3.40;;;17.00;99.90;;;;;;4951416;29;20428;-65
2023/08/02 07:34:28;;;;;;;6.70;3.10;;;17.30;99.90;;;;;;4936296;28;20038;-65
2023/08/02 07:36:54;;;;;;;7.10;3.38;;;17.60;99.90;;;;;;4954793;28;20035;-65
2023/08/02 07:39:19;;;;;;;5.00;2.10;;;17.70;99.90;;;;;;4954334;28;20033;-65
2023/08/02 07:41:45;;;;;;;4.82;2.40;;;18.20;99.90;;;;;;4953959;29;20023;-65
2023/08/02 07:44:10;;;;;;;4.53;2.20;;;18.70;99.90;;;;;;4953352;28;20071;-65
2023/08/02 07:46:36;;;;;;;2.88;2.15;;;19.00;99.90;;;;;;4945415;29;20039;-65
2023/08/02 07:49:02;;;;;;;4.35;2.22;;;19.00;99.90;;;;;;4951283;29;20066;-65
2023/08/02 07:51:27;;;;;;;4.28;2.35;;;18.70;99.90;;;;;;4954618;29;20019;-65
2023/08/02 07:53:53;;;;;;;2.63;1.83;;;18.60;99.90;;;;;;4953533;28;20026;-65
2023/08/02 07:56:20;;;;;;;2.85;1.83;;;18.50;99.90;;;;;;4955476;28;20374;-65
2023/08/02 07:58:45;;;;;;;4.63;3.05;;;18.50;99.90;;;;;;4948912;29;20023;-65
2023/08/02 08:01:11;;;;;;;3.30;1.65;;;18.50;99.90;;;;;;4946739;29;20669;-65
2023/08/02 08:03:37;;;;;;;3.95;1.77;;;18.70;99.90;;;;;;4951489;29;20031;-65
2023/08/02 08:06:16;;;;;;;3.40;1.90;;;18.80;99.90;;;;;;4949754;29;20082;-65
2023/08/02 08:08:42;;;;;;;2.38;1.70;;;19.40;99.90;;;;;;4949715;29;20093;-65
2023/08/02 08:11:08;;;;;;;4.10;1.67;;;20.00;99.90;;;;;;4953689;29;20015;-66
2023/08/02 08:13:34;;;;;;;2.90;1.48;;;20.30;99.90;;;;;;4947094;29;20074;-65
2023/08/02 08:16:00;;;;;;;1.25;1.02;;;20.20;99.90;;;;;;4953207;28;20422;-66
2023/08/02 08:18:28;;;;;;;3.63;1.20;;;20.10;99.90;;;;;;4949178;29;20032;-66
2023/08/02 08:20:54;;;;;;;2.22;1.63;;;19.90;99.90;;;;;;4932962;29;20022;-65
2023/08/02 08:23:19;;;;;;;2.08;1.30;;;19.80;99.90;;;;;;4954565;28;20023;-66
2023/08/02 08:25:45;;;;;;;2.47;1.50;;;19.70;99.90;;;;;;4952586;29;20413;-66
2023/08/02 08:28:11;;;;;;;2.35;1.88;;;19.60;99.90;;;;;;4949994;29;20031;-66
2023/08/02 08:30:36;;;;;;;2.47;1.42;;;19.40;99.90;;;;;;4950258;29;20142;-66
2023/08/02 08:33:02;;;;;;;2.20;1.23;;;19.40;99.90;;;;;;4948873;28;20024;-65
2023/08/02 08:35:27;;;;;;;4.95;1.88;;;19.30;99.90;;;;;;4951966;29;20025;-66
2023/08/02 08:37:53;;;;;;;2.30;0.98;;;19.50;99.90;;;;;;4947048;29;20470;-65
2023/08/02 08:40:20;;;;;;;5.00;1.55;;;19.50;99.90;;;;;;4949236;29;20027;-66
2023/08/02 08:42:53;;;;;;;6.40;2.50;;;19.40;99.90;;;;;;4950160;28;20038;-65
2023/08/02 08:45:23;;;;;;;12.50;4.68;;;19.30;99.90;;;;;;4953271;28;20047;-65
2023/08/02 08:47:49;;;;;;;4.18;1.67;;;19.00;99.90;;;;;;4951162;29;20034;-65
2023/08/02 08:50:16;;;;;;;1.92;1.10;;;18.90;99.90;;;;;;4944842;29;20031;-65
2023/08/02 08:52:46;;;;;;;3.45;1.10;;;18.90;99.90;;;;;;4946499;29;20225;-66
2023/08/02 08:55:16;;;;;;;2.35;1.55;;;18.80;99.90;;;;;;4942024;29;20029;-65
2023/08/02 08:57:45;;;;;;;1.48;0.90;;;18.50;99.90;;;;;;4908272;28;20055;-66
2023/08/02 09:00:13;;;;;;;2.63;1.20;;;18.40;99.90;;;;;;4942545;28;20118;-66
2023/08/02 09:02:39;;;;;;;1.38;0.90;;;18.30;99.90;;;;;;4950634;28;20046;-65
2023/08/02 09:05:06;;;;;;;2.85;0.93;;;18.20;99.90;;;;;;4948915;28;20035;-66
2023/08/02 09:07:32;;;;;;;5.28;0.80;;;18.10;99.90;;;;;;4945654;28;20027;-65
2023/08/02 09:09:57;;;;;;;1.25;0.90;;;18.00;99.90;;;;;;4945825;29;20405;-65
2023/08/02 09:12:24;;;;;;;2.70;0.90;;;17.90;99.90;;;;;;4950166;29;20027;-65
2023/08/02 09:15:01;;;;;;;2.03;1.00;;;17.80;99.90;;;;;;4957301;28;20062;-66
2023/08/02 09:17:27;;;;;;;1.60;0.90;;;17.70;99.90;;;;;;4948958;28;20023;-66
2023/08/02 09:20:09;;;;;;;2.03;0.90;;;17.70;99.90;;;;;;4942791;28;20114;-63
2023/08/02 09:22:35;;;;;;;1.70;0.75;;;17.60;99.90;;;;;;4947520;28;20031;-65
2023/08/02 09:25:07;;;;;;;0.90;0.77;;;17.60;99.90;;;;;;4947844;28;20027;-65
2023/08/02 09:27:33;;;;;;;0.88;0.60;;;17.60;99.90;;;;;;4953704;28;20038;-63
2023/08/02 09:29:59;;;;;;;0.65;0.50;;;17.70;99.90;;;;;;4950641;28;20024;-65
2023/08/02 09:32:25;;;;;;;0.43;0.43;;;17.70;99.90;;;;;;4921216;28;20138;-64
2023/08/02 09:34:54;;;;;;;1.67;0.70;;;17.80;99.90;;;;;;4951840;28;20024;-65
2023/08/02 09:37:33;;;;;;;1.50;0.82;;;17.90;99.90;;;;;;4948659;28;20508;-65
2023/08/02 09:39:59;;;;;;;2.72;0.80;;;18.10;99.90;;;;;;4942529;29;20396;-65
2023/08/02 09:42:26;;;;;;;3.17;0.70;;;18.30;99.90;;;;;;4945405;28;20452;-65
2023/08/02 09:44:58;;;;;;;1.60;0.80;;;18.60;99.90;;;;;;4943520;28;20032;-65
2023/08/02 09:47:26;;;;;;;0.82;0.45;;;19.00;99.90;;;;;;4952822;28;20047;-65
2023/08/02 09:50:16;;;;;;;0.70;0.60;;;19.30;99.90;;;;;;4942944;29;20109;-62
2023/08/02 09:52:41;;;;;;;1.05;0.40;;;19.50;99.90;;;;;;4942145;28;20805;-65
2023/08/02 09:55:08;;;;;;;0.35;0.30;;;19.70;99.90;;;;;;4944770;29;20116;-64
2023/08/02 09:57:34;;;;;;;0.90;0.40;;;19.90;99.90;;;;;;4943962;28;20039;-64
2023/08/02 10:00:06;;;;;;;2.17;0.30;;;20.20;99.90;;;;;;4919759;28;20043;-66
2023/08/02 10:02:35;;;;;;;0.63;0.43;;;20.20;99.90;;;;;;4942264;28;20022;-65
2023/08/02 10:05:02;;;;;;;1.85;0.60;;;20.30;99.90;;;;;;4946407;28;20417;-65
2023/08/02 10:07:52;;;;;;;1.15;0.50;;;20.10;99.90;;;;;;4946071;28;20035;-66
2023/08/02 10:10:37;;;;;;;0.75;0.30;;;20.20;99.90;;;;;;4944385;28;20031;-65
2023/08/02 10:13:19;;;;;;;0.70;0.40;;;20.10;99.90;;;;;;4941615;28;20114;-65
2023/08/02 10:15:49;;;;;;;0.40;0.40;;;20.10;99.90;;;;;;4943873;28;20028;-65
2023/08/02 10:18:18;;;;;;;0.73;0.30;;;20.10;99.90;;;;;;4942900;28;20042;-65
2023/08/02 10:20:48;;;;;;;0.38;0.35;;;20.10;99.90;;;;;;4947669;28;20401;-66
2023/08/02 10:23:14;;;;;;;0.30;0.30;;;20.00;99.90;;;;;;4943120;28;20059;-65
2023/08/02 10:25:41;;;;;;;0.55;0.32;;;20.10;99.90;;;;;;4949288;28;20062;-65
2023/08/02 10:28:08;;;;;;;0.60;0.30;;;20.10;99.90;;;;;;4946502;28;20069;-65
2023/08/02 10:30:34;;;;;;;0.20;0.20;;;20.20;99.90;;;;;;4941009;28;20042;-65
2023/08/02 10:33:14;;;;;;;0.20;0.20;;;20.30;99.90;;;;;;4936619;28;20055;-65
2023/08/02 10:36:02;;;;;;;0.43;0.17;;;20.50;99.90;;;;;;4943021;28;20066;-65
2023/08/02 10:38:37;;;;;;;2.40;0.45;;;20.30;99.90;;;;;;4941114;28;20040;-65
2023/08/02 10:41:05;;;;;;;0.30;0.30;;;20.30;99.90;;;;;;4941755;29;20463;-65
2023/08/02 10:43:30;;;;;;;1.30;0.30;;;20.60;99.90;;;;;;4941913;28;20441;-65
2023/08/02 10:46:16;;;;;;;0.40;0.35;;;20.90;99.90;;;;;;4935112;28;20028;-65
2023/08/02 10:48:42;;;;;;;0.65;0.20;;;21.50;99.90;;;;;;4946377;28;20040;-67
2023/08/02 10:51:37;;;;;;;0.63;0.17;;;21.90;99.90;;;;;;4942489;28;20035;-65
2023/08/02 10:54:28;;;;;;;0.82;0.20;;;22.20;99.90;;;;;;4953404;28;20023;-65
2023/08/02 10:57:03;;;;;;;0.30;0.25;;;22.60;99.90;;;;;;4935577;29;20409;-66
2023/08/02 10:59:36;;;;;;;0.40;0.20;;;22.90;99.90;;;;;;4924773;28;20035;-65
2023/08/02 11:02:10;;;;;;;0.30;0.30;;;22.80;99.90;;;;;;4946941;29;20086;-65
2023/08/02 11:04:37;;;;;;;0.10;0.10;;;22.60;99.90;;;;;;4946664;28;20053;-65
2023/08/02 11:07:12;;;;;;;0.43;0.28;;;22.50;99.90;;;;;;4946024;28;20331;-65
2023/08/02 11:09:38;;;;;;;0.30;0.20;;;22.20;99.90;;;;;;4945923;28;20090;-65
2023/08/02 11:12:11;;;;;;;0.30;0.30;;;22.60;99.90;;;;;;4947872;29;20023;-66
2023/08/02 11:14:41;;;;;;;0.50;0.30;;;22.70;99.90;;;;;;4951877;28;20485;-66
2023/08/02 11:17:07;;;;;;;0.22;0.22;;;23.10;99.90;;;;;;4940077;29;20031;-65
2023/08/02 11:19:35;;;;;;;0.43;0.20;;;23.50;99.90;;;;;;4944656;28;20032;-64
2023/08/02 11:22:01;;;;;;;0.30;0.20;;;23.40;99.90;;;;;;4943274;29;20020;-65
2023/08/02 11:24:27;;;;;;;0.75;0.43;;;23.30;99.90;;;;;;4940784;28;20058;-66
2023/08/02 11:26:57;;;;;;;0.30;0.30;;;23.10;99.90;;;;;;4931356;29;20055;-65
2023/08/02 11:29:23;;;;;;;0.10;0.10;;;22.70;99.90;;;;;;4955109;28;20047;-65
2023/08/02 11:31:50;;;;;;;0.30;0.30;;;22.70;99.90;;;;;;4941152;28;20536;-65
2023/08/02 11:34:19;;;;;;;1.58;1.10;;;22.60;99.90;;;;;;4930860;28;20052;-65
2023/08/02 11:36:49;;;;;;;0.55;0.43;;;22.60;99.90;;;;;;4951102;29;20031;-65
2023/08/02 11:39:15;;;;;;;0.35;0.30;;;22.70;99.90;;;;;;4957766;28;20114;-65
2023/08/02 11:41:41;;;;;;;0.32;0.20;;;23.20;99.90;;;;;;4947173;29;20046;-65
2023/08/02 11:44:19;;;;;;;0.70;0.40;;;23.70;99.90;;;;;;4952433;28;20437;-66
2023/08/02 11:46:54;;;;;;;2.28;0.50;;;23.50;99.90;;;;;;4948909;29;20111;-65
2023/08/02 11:49:20;;;;;;;1.80;0.30;;;23.70;99.90;;;;;;4948517;28;20027;-65
2023/08/02 11:51:46;;;;;;;3.80;0.40;;;23.50;99.90;;;;;;4939936;29;20106;-65
2023/08/02 11:54:12;;;;;;;0.38;0.35;;;23.60;99.90;;;;;;4947770;28;20065;-66
2023/08/02 11:56:38;;;;;;;0.40;0.40;;;23.40;99.90;;;;;;4940763;29;20849;-65
2023/08/02 11:59:07;;;;;;;0.20;0.20;;;23.60;99.90;;;;;;4944217;28;20024;-65
2023/08/02 12:01:32;;;;;;;0.80;0.40;;;23.90;99.90;;;;;;4925871;29;20052;-66
2023/08/02 12:04:04;;;;;;;0.15;0.15;;;24.00;99.90;;;;;;4952825;28;20028;-66
2023/08/02 12:06:50;;;;;;;0.38;0.25;;;24.20;99.90;;;;;;4949223;28;20110;-65
2023/08/02 12:09:17;;;;;;;0.63;0.30;;;24.40;99.90;;;;;;4946354;28;20031;-66
2023/08/02 12:11:44;;;;;;;0.20;0.20;;;24.50;99.90;;;;;;4947304;29;20035;-65
2023/08/02 12:14:10;;;;;;;0.93;0.30;;;25.10;99.90;;;;;;4953447;28;20055;-66
2023/08/02 12:16:40;;;;;;;0.68;0.20;;;25.10;99.90;;;;;;4950783;28;20069;-65
2023/08/02 12:19:05;;;;;;;0.40;0.20;;;24.80;99.90;;;;;;4946388;28;20129;-66
2023/08/02 12:21:31;;;;;;;0.20;0.20;;;24.80;99.90;;;;;;4898941;28;20167;-66
2023/08/02 12:23:57;;;;;;;0.75;0.40;;;24.80;99.90;;;;;;4940534;28;20036;-65
2023/08/02 12:26:33;;;;;;;0.40;0.40;;;24.70;99.90;;;;;;4944256;28;20030;-65
2023/08/02 12:29:00;;;;;;;0.57;0.35;;;24.80;99.90;;;;;;4945158;29;20106;-66
2023/08/02 12:31:26;;;;;;;0.93;0.65;;;25.00;99.90;;;;;;4947591;29;20047;-65
2023/08/02 12:33:51;;;;;;;0.77;0.30;;;25.20;99.90;;;;;;4926705;28;20055;-66
2023/08/02 12:36:46;;;;;;;0.45;0.40;;;25.40;99.90;;;;;;4944733;28;20142;-66
2023/08/02 12:39:11;;;;;;;3.08;1.02;;;25.30;99.90;;;;;;4945984;28;20043;-65
2023/08/02 12:41:37;;;;;;;2.47;1.10;;;25.10;99.90;;;;;;4944581;29;20038;-64
2023/08/02 12:44:03;;;;;;;0.40;0.30;;;24.70;99.90;;;;;;4945516;29;20098;-66
2023/08/02 12:46:28;;;;;;;0.32;0.32;;;24.20;99.90;;;;;;4941369;28;20046;-65